Time;durP1;ratioP1;P1;durP2;ratioP2;P2;SDS_P1;SDS_P2;PMS_P1;PMS_P2;Temp;Humidity;BMP_temperature;BMP_pressure;BME280_temperature;BME280_humidity;BME280_pressure;Samples;Min_cycle;Max_cycle;Signal;HPM_P1;HPM_P2
2022/02/18 00:00:47;;;;;;;9.93;1.42;;;5.00;99.90;;;;;;5054826;28;20092;-80
2022/02/18 00:03:14;;;;;;;3.05;1.00;;;5.00;99.90;;;;;;5055261;28;20072;-81
2022/02/18 00:05:43;;;;;;;4.05;0.85;;;5.00;99.90;;;;;;5054966;28;20080;-80
2022/02/18 00:08:10;;;;;;;2.75;0.90;;;4.90;99.90;;;;;;5056740;28;20056;-80
2022/02/18 00:10:39;;;;;;;4.00;0.70;;;4.80;99.90;;;;;;5055237;28;20045;-80
2022/02/18 00:13:06;;;;;;;8.93;1.60;;;4.70;99.90;;;;;;5054983;28;20481;-80
2022/02/18 00:15:33;;;;;;;3.30;1.10;;;4.60;99.90;;;;;;5054827;28;20128;-80
2022/02/18 00:18:03;;;;;;;6.30;1.25;;;4.50;99.90;;;;;;5055569;28;20045;-81
2022/02/18 00:20:31;;;;;;;4.72;0.90;;;4.40;99.90;;;;;;5054823;28;20095;-80
2022/02/18 00:23:03;;;;;;;4.15;0.88;;;4.20;99.90;;;;;;5054868;28;20568;-80
2022/02/18 00:25:31;;;;;;;4.07;0.95;;;4.10;99.90;;;;;;5055175;28;20107;-81
2022/02/18 00:28:02;;;;;;;3.90;1.23;;;4.00;99.90;;;;;;5054991;28;20496;-80
2022/02/18 00:30:29;;;;;;;10.30;1.42;;;3.80;99.90;;;;;;5056015;28;20483;-80
2022/02/18 00:32:56;;;;;;;4.43;0.90;;;3.70;99.90;;;;;;5055283;28;20076;-81
2022/02/18 00:35:23;;;;;;;5.28;0.82;;;3.60;99.90;;;;;;5057054;28;20491;-81
2022/02/18 00:37:52;;;;;;;5.03;0.77;;;3.30;99.90;;;;;;5055538;28;20045;-80
2022/02/18 00:40:19;;;;;;;4.05;0.95;;;3.20;99.90;;;;;;5055502;28;20492;-80
2022/02/18 00:42:49;;;;;;;2.83;0.63;;;3.00;99.90;;;;;;5055731;28;20048;-81
2022/02/18 00:45:16;;;;;;;3.47;0.90;;;2.80;99.90;;;;;;5056044;28;20143;-82
2022/02/18 00:47:43;;;;;;;2.25;0.55;;;2.60;99.90;;;;;;5057359;28;20057;-81
2022/02/18 00:50:10;;;;;;;5.22;1.10;;;2.50;99.90;;;;;;5056422;28;20109;-81
2022/02/18 00:52:37;;;;;;;5.03;0.88;;;2.50;99.90;;;;;;5058125;28;20471;-81
2022/02/18 00:55:04;;;;;;;5.10;1.00;;;2.30;99.90;;;;;;5056816;28;20128;-81
2022/02/18 00:57:31;;;;;;;4.07;0.70;;;2.20;99.90;;;;;;5057256;28;20083;-82
2022/02/18 00:59:58;;;;;;;2.03;0.90;;;2.10;99.90;;;;;;5059238;28;20144;-82
2022/02/18 01:02:24;;;;;;;7.47;1.60;;;2.00;99.90;;;;;;5058814;28;20109;-80
2022/02/18 01:04:51;;;;;;;6.25;1.10;;;1.90;99.90;;;;;;5056548;28;20084;-80
2022/02/18 01:07:18;;;;;;;5.50;1.00;;;1.80;99.90;;;;;;5055764;28;20516;-80
2022/02/18 01:09:44;;;;;;;6.10;1.02;;;1.70;99.90;;;;;;5054417;28;20045;-81
2022/02/18 01:12:11;;;;;;;7.43;1.17;;;1.70;99.90;;;;;;5054817;28;20083;-81
2022/02/18 01:14:38;;;;;;;6.57;1.90;;;1.60;99.90;;;;;;5054334;28;20131;-80
2022/02/18 01:17:05;;;;;;;11.90;2.13;;;1.70;99.90;;;;;;5054627;28;20059;-80
2022/02/18 01:19:32;;;;;;;10.75;1.58;;;1.60;99.90;;;;;;5055730;28;20072;-80
2022/02/18 01:21:59;;;;;;;7.50;1.17;;;1.60;99.90;;;;;;5053958;28;20395;-80
2022/02/18 01:24:26;;;;;;;4.93;1.40;;;1.50;99.90;;;;;;5053354;28;20052;-80
2022/02/18 01:26:54;;;;;;;8.05;1.55;;;1.40;99.90;;;;;;5053714;28;20045;-80
2022/02/18 01:29:22;;;;;;;8.38;1.13;;;1.50;99.90;;;;;;5053160;28;20572;-80
2022/02/18 01:31:48;;;;;;;7.03;1.30;;;1.40;99.90;;;;;;5053483;28;20452;-80
2022/02/18 01:34:15;;;;;;;10.25;1.25;;;1.40;99.90;;;;;;5055269;28;20076;-80
2022/02/18 01:36:42;;;;;;;6.80;1.05;;;1.40;99.90;;;;;;5054680;28;20048;-80
2022/02/18 01:39:10;;;;;;;8.93;1.38;;;1.40;99.90;;;;;;5053307;28;20128;-80
2022/02/18 01:41:37;;;;;;;6.75;1.70;;;1.30;99.90;;;;;;5053577;28;20049;-81
2022/02/18 01:44:05;;;;;;;6.53;1.33;;;1.20;99.90;;;;;;5053565;28;20132;-80
2022/02/18 01:46:33;;;;;;;5.82;1.50;;;1.20;99.90;;;;;;5053886;28;20553;-80
2022/02/18 01:49:01;;;;;;;13.18;2.00;;;1.20;99.90;;;;;;5053924;28;20064;-80
2022/02/18 01:51:28;;;;;;;4.30;1.50;;;1.20;99.90;;;;;;5055399;28;20143;-80
2022/02/18 01:53:55;;;;;;;4.38;1.40;;;1.30;99.90;;;;;;5055910;28;20139;-80
2022/02/18 01:56:23;;;;;;;9.30;1.67;;;1.30;99.90;;;;;;5054949;28;20041;-81
2022/02/18 01:58:50;;;;;;;5.70;1.30;;;1.30;99.90;;;;;;5056574;28;20045;-80
2022/02/18 02:01:17;;;;;;;7.43;1.67;;;1.30;99.90;;;;;;5055080;28;20124;-80
2022/02/18 02:03:43;;;;;;;14.18;1.73;;;1.30;99.90;;;;;;5055729;28;20085;-80
2022/02/18 02:06:13;;;;;;;11.00;1.35;;;1.40;99.90;;;;;;5056014;28;20068;-81
2022/02/18 02:08:40;;;;;;;10.85;2.15;;;1.30;99.90;;;;;;5060459;28;20080;-82
2022/02/18 02:11:08;;;;;;;7.43;1.85;;;1.30;99.90;;;;;;5061463;28;20048;-81
2022/02/18 02:13:39;;;;;;;5.30;1.05;;;1.40;99.90;;;;;;5060954;28;20091;-82
2022/02/18 02:16:07;;;;;;;9.52;1.38;;;1.30;99.90;;;;;;5064905;28;20053;-80
2022/02/18 02:18:34;;;;;;;9.93;1.40;;;1.20;99.90;;;;;;5058316;28;20049;-80
2022/02/18 02:21:01;;;;;;;8.57;1.55;;;1.30;99.90;;;;;;5058042;28;20060;-81
2022/02/18 02:23:28;;;;;;;8.98;1.55;;;1.20;99.90;;;;;;5057928;28;20053;-83
2022/02/18 02:25:57;;;;;;;10.32;1.48;;;1.20;99.90;;;;;;5057889;28;20049;-85
2022/02/18 02:28:24;;;;;;;5.53;1.52;;;1.20;99.90;;;;;;5059601;28;20099;-83
2022/02/18 02:30:51;;;;;;;7.05;1.20;;;1.10;99.90;;;;;;5058064;28;20132;-85
2022/02/18 02:33:18;;;;;;;7.78;1.65;;;1.10;99.90;;;;;;5058120;28;20072;-85
2022/02/18 02:35:46;;;;;;;8.07;1.40;;;1.10;99.90;;;;;;5058204;28;20045;-83
2022/02/18 02:38:13;;;;;;;5.90;1.60;;;1.10;99.90;;;;;;5057416;28;20072;-84
2022/02/18 02:40:40;;;;;;;9.88;1.60;;;1.10;99.90;;;;;;5057155;28;20044;-83
2022/02/18 02:43:07;;;;;;;3.47;1.30;;;1.00;99.90;;;;;;5056933;28;20132;-83
2022/02/18 02:45:33;;;;;;;12.43;1.50;;;1.00;99.90;;;;;;5057165;28;20515;-83
2022/02/18 02:48:00;;;;;;;8.43;1.23;;;1.00;99.90;;;;;;5056892;28;20072;-83
2022/02/18 02:50:27;;;;;;;10.20;1.58;;;1.00;99.90;;;;;;5057550;28;20083;-85
2022/02/18 02:52:54;;;;;;;11.15;1.40;;;1.00;99.90;;;;;;5056741;28;20499;-83
2022/02/18 02:55:21;;;;;;;14.43;1.92;;;1.10;99.90;;;;;;5057281;28;20087;-84
2022/02/18 02:57:48;;;;;;;18.38;2.30;;;1.20;99.90;;;;;;5056868;28;20076;-85
2022/02/18 03:00:16;;;;;;;18.40;2.65;;;1.40;99.90;;;;;;5058121;28;20506;-85
2022/02/18 03:02:43;;;;;;;13.35;2.65;;;1.40;99.90;;;;;;5057559;28;20128;-85
2022/02/18 03:05:13;;;;;;;10.68;1.83;;;1.60;99.90;;;;;;5057253;28;20053;-84
2022/02/18 03:07:41;;;;;;;6.90;1.25;;;1.60;99.90;;;;;;5059502;28;20059;-85
2022/02/18 03:10:08;;;;;;;9.73;1.25;;;1.70;99.90;;;;;;5057710;28;20084;-85
2022/02/18 03:12:36;;;;;;;8.80;2.25;;;1.80;99.90;;;;;;5059962;28;20095;-85
2022/02/18 03:15:04;;;;;;;11.23;1.48;;;2.00;99.90;;;;;;5058326;28;20080;-83
2022/02/18 03:17:33;;;;;;;14.23;2.13;;;2.10;99.90;;;;;;5058559;28;20064;-85
2022/02/18 03:20:00;;;;;;;9.77;1.65;;;2.20;99.90;;;;;;5058768;28;20460;-84
2022/02/18 03:22:27;;;;;;;8.35;1.38;;;2.20;99.90;;;;;;5059946;28;20128;-84
2022/02/18 03:24:54;;;;;;;11.50;2.05;;;2.30;99.90;;;;;;5059575;28;20045;-85
2022/02/18 03:27:21;;;;;;;10.40;1.45;;;2.30;99.90;;;;;;5061462;28;20148;-85
2022/02/18 03:29:48;;;;;;;7.30;0.98;;;2.40;99.90;;;;;;5062671;28;20474;-85
2022/02/18 03:32:17;;;;;;;8.15;1.42;;;2.40;99.90;;;;;;5058875;28;20393;-84
2022/02/18 03:34:44;;;;;;;6.50;1.77;;;2.40;99.90;;;;;;5058070;28;20098;-84
2022/02/18 03:37:12;;;;;;;10.68;1.85;;;2.30;99.90;;;;;;5056751;28;20500;-85
2022/02/18 03:39:39;;;;;;;11.05;1.30;;;2.40;99.90;;;;;;5056434;28;20110;-84
2022/02/18 03:42:06;;;;;;;15.00;1.60;;;2.40;99.90;;;;;;5055936;28;20053;-84
2022/02/18 03:44:35;;;;;;;5.40;0.95;;;2.50;99.90;;;;;;5056303;28;20136;-85
2022/02/18 03:47:03;;;;;;;5.50;1.40;;;2.50;99.90;;;;;;5055842;28;20466;-84
2022/02/18 03:49:30;;;;;;;7.10;1.13;;;2.50;99.90;;;;;;5056158;28;20155;-84
2022/02/18 03:51:56;;;;;;;5.28;1.23;;;2.60;99.90;;;;;;5055916;28;20055;-84
2022/02/18 03:54:25;;;;;;;15.25;2.33;;;2.60;99.90;;;;;;5055734;28;20118;-85
2022/02/18 03:56:55;;;;;;;8.52;1.70;;;2.90;99.90;;;;;;5055366;28;20561;-85
2022/02/18 03:59:22;;;;;;;13.50;1.83;;;3.50;99.90;;;;;;5055679;28;20084;-84
2022/02/18 04:01:49;;;;;;;9.45;1.58;;;3.70;99.90;;;;;;5055618;28;20047;-80
2022/02/18 04:04:16;;;;;;;7.53;1.98;;;4.00;99.90;;;;;;5054018;28;20496;-80
2022/02/18 04:06:42;;;;;;;14.32;2.22;;;4.20;99.90;;;;;;5054485;28;20056;-80
2022/02/18 04:09:09;;;;;;;11.25;1.73;;;4.50;99.90;;;;;;5060733;23;20055;-80
2022/02/18 04:11:36;;;;;;;10.20;1.60;;;4.70;99.90;;;;;;5055318;28;20131;-80
2022/02/18 04:14:03;;;;;;;7.93;1.50;;;4.70;99.90;;;;;;5054811;28;20087;-80
2022/02/18 04:16:29;;;;;;;8.98;1.58;;;4.50;99.90;;;;;;5054895;28;20040;-80
2022/02/18 04:18:57;;;;;;;9.98;2.05;;;4.30;99.90;;;;;;5054620;28;20547;-80
2022/02/18 04:21:24;;;;;;;22.05;4.03;;;4.20;99.90;;;;;;5055350;28;20049;-80
2022/02/18 04:23:51;;;;;;;11.80;1.90;;;4.20;99.90;;;;;;5055045;28;20048;-80
2022/02/18 04:26:18;;;;;;;15.32;2.00;;;4.20;99.90;;;;;;5056500;28;20090;-80
2022/02/18 04:28:45;;;;;;;8.43;2.10;;;4.20;99.90;;;;;;5056287;28;20100;-81
2022/02/18 04:31:12;;;;;;;9.02;3.72;;;4.20;99.90;;;;;;5053861;28;20091;-81
2022/02/18 04:33:38;;;;;;;13.48;3.03;;;4.20;99.90;;;;;;5055006;28;20575;-80
2022/02/18 04:36:05;;;;;;;12.77;3.47;;;4.30;99.90;;;;;;5057134;28;20140;-82
2022/02/18 04:38:32;;;;;;;12.52;2.75;;;4.10;99.90;;;;;;5057088;28;20132;-82
2022/02/18 04:40:59;;;;;;;11.07;2.20;;;4.00;99.90;;;;;;5056416;28;20071;-82
2022/02/18 04:43:26;;;;;;;4.93;1.60;;;3.80;99.90;;;;;;5056356;28;20099;-81
2022/02/18 04:45:53;;;;;;;9.40;2.20;;;3.60;99.90;;;;;;5055989;28;20045;-82
2022/02/18 04:48:20;;;;;;;6.28;2.40;;;3.40;99.90;;;;;;5055808;28;20135;-82
2022/02/18 04:50:47;;;;;;;11.85;2.70;;;3.40;99.90;;;;;;5055982;28;20084;-82
2022/02/18 04:53:34;;;;;;;13.63;2.00;;;3.20;99.90;;;;;;5056112;28;20059;-82
2022/02/18 04:56:01;;;;;;;13.13;2.42;;;3.20;99.90;;;;;;5055552;28;20072;-82
2022/02/18 04:58:27;;;;;;;10.90;4.35;;;3.10;99.90;;;;;;5055990;28;20077;-82
2022/02/18 05:00:54;;;;;;;21.35;8.18;;;3.10;99.90;;;;;;5055702;28;20083;-82
2022/02/18 05:03:21;;;;;;;32.38;18.15;;;3.10;99.90;;;;;;5056485;28;20083;-82
2022/02/18 05:05:47;;;;;;;22.23;11.75;;;3.00;99.90;;;;;;5058457;28;20073;-82
2022/02/18 05:08:14;;;;;;;23.60;8.13;;;2.90;99.90;;;;;;5058807;28;20059;-82
2022/02/18 05:10:41;;;;;;;21.10;8.73;;;2.90;99.90;;;;;;5057874;28;20045;-81
2022/02/18 05:13:08;;;;;;;15.20;6.80;;;2.80;99.90;;;;;;5058964;28;20060;-82
2022/02/18 05:15:35;;;;;;;22.85;7.85;;;2.80;99.90;;;;;;5059647;28;20504;-82
2022/02/18 05:18:03;;;;;;;20.70;6.00;;;2.70;99.90;;;;;;5061938;28;20073;-82
2022/02/18 05:20:30;;;;;;;9.68;3.20;;;2.70;99.90;;;;;;5057913;28;20123;-82
2022/02/18 05:22:58;;;;;;;10.80;3.42;;;2.60;99.90;;;;;;5058396;28;20080;-82
2022/02/18 05:25:25;;;;;;;14.65;3.50;;;2.60;99.90;;;;;;5058139;28;20082;-82
2022/02/18 05:27:52;;;;;;;8.88;3.28;;;2.60;99.90;;;;;;5057510;28;20084;-82
2022/02/18 05:30:20;;;;;;;11.75;2.63;;;2.50;99.90;;;;;;5057227;28;20132;-82
2022/02/18 05:32:50;;;;;;;11.90;2.28;;;2.40;99.90;;;;;;5059411;28;20112;-82
2022/02/18 05:35:17;;;;;;;8.70;2.70;;;2.40;99.90;;;;;;5059023;28;20064;-82
2022/02/18 05:37:44;;;;;;;12.57;2.58;;;2.40;99.90;;;;;;5057120;28;20139;-82
2022/02/18 05:40:11;;;;;;;16.95;3.60;;;2.30;99.90;;;;;;5057355;28;20084;-82
2022/02/18 05:42:38;;;;;;;13.23;3.15;;;2.20;99.90;;;;;;5057204;28;20102;-82
2022/02/18 05:45:05;;;;;;;14.73;3.03;;;2.20;99.90;;;;;;5057459;28;20051;-82
2022/02/18 05:47:36;;;;;;;11.10;2.40;;;2.20;99.90;;;;;;5057255;28;20059;-82
2022/02/18 05:50:04;;;;;;;10.38;2.80;;;2.20;99.90;;;;;;5057636;28;20056;-82
2022/02/18 05:52:31;;;;;;;12.00;2.55;;;2.20;99.90;;;;;;5057712;28;20077;-83
2022/02/18 05:54:58;;;;;;;10.43;2.55;;;2.20;99.90;;;;;;5057507;28;20215;-82
2022/02/18 05:57:24;;;;;;;7.68;3.00;;;2.20;99.90;;;;;;5057616;28;20099;-82
2022/02/18 05:59:51;;;;;;;11.63;4.05;;;2.30;99.90;;;;;;5057072;28;20041;-82
2022/02/18 06:02:19;;;;;;;14.75;3.85;;;2.30;99.90;;;;;;5057753;28;20491;-82
2022/02/18 06:04:46;;;;;;;13.23;3.47;;;2.30;99.90;;;;;;5057633;28;20507;-82
2022/02/18 06:07:15;;;;;;;10.73;3.55;;;2.30;99.90;;;;;;5058133;28;20124;-82
2022/02/18 06:09:42;;;;;;;13.98;4.50;;;2.40;99.90;;;;;;5058318;28;20072;-82
2022/02/18 06:12:10;;;;;;;19.55;4.57;;;2.40;99.90;;;;;;5056462;28;20526;-81
2022/02/18 06:14:38;;;;;;;17.08;4.85;;;2.40;99.90;;;;;;5057296;28;20052;-81
2022/02/18 06:17:08;;;;;;;16.73;3.95;;;2.40;99.90;;;;;;5057357;28;20055;-82
2022/02/18 06:19:35;;;;;;;15.60;4.28;;;2.50;99.90;;;;;;5057054;28;20396;-82
2022/02/18 06:22:02;;;;;;;18.92;4.20;;;2.50;99.90;;;;;;5056808;28;20049;-82
2022/02/18 06:24:29;;;;;;;16.95;5.50;;;2.50;99.90;;;;;;5057363;28;20045;-82
2022/02/18 06:26:56;;;;;;;24.17;8.73;;;2.50;99.90;;;;;;5056590;28;20080;-82
2022/02/18 06:29:23;;;;;;;15.82;5.95;;;2.50;99.90;;;;;;5057230;28;20338;-82
2022/02/18 06:31:49;;;;;;;25.80;7.40;;;2.50;99.90;;;;;;5062490;28;20080;-82
2022/02/18 06:34:16;;;;;;;31.70;13.93;;;2.50;99.90;;;;;;5058212;28;20116;-82
2022/02/18 06:36:43;;;;;;;33.95;12.55;;;2.40;99.90;;;;;;5058043;28;20045;-82
2022/02/18 06:39:10;;;;;;;32.40;14.20;;;2.40;99.90;;;;;;5056610;28;20136;-82
2022/02/18 06:41:37;;;;;;;21.23;11.60;;;2.50;99.90;;;;;;5057016;28;20140;-81
2022/02/18 06:44:04;;;;;;;23.65;13.32;;;2.60;99.90;;;;;;5056908;28;20140;-81
2022/02/18 06:46:31;;;;;;;19.13;10.50;;;2.80;99.90;;;;;;5057964;28;20539;-82
2022/02/18 06:48:57;;;;;;;21.17;6.65;;;2.80;99.90;;;;;;5057014;28;20060;-81
2022/02/18 06:51:24;;;;;;;20.83;7.63;;;2.90;99.90;;;;;;5055228;28;20091;-81
2022/02/18 06:53:51;;;;;;;18.08;6.78;;;3.00;99.90;;;;;;5055699;28;20484;-81
2022/02/18 06:56:36;;;;;;;13.18;4.75;;;3.00;99.90;;;;;;5059065;28;20044;-82
2022/02/18 06:59:02;;;;;;;16.10;4.65;;;3.10;99.90;;;;;;5059147;28;20444;-81
2022/02/18 07:01:30;;;;;;;24.10;7.28;;;3.10;99.90;;;;;;5058874;28;20081;-82
2022/02/18 07:03:57;;;;;;;30.95;10.65;;;3.10;99.90;;;;;;5057485;28;20045;-82
2022/02/18 07:06:24;;;;;;;20.83;8.30;;;3.20;99.90;;;;;;5057410;28;20136;-82
2022/02/18 07:08:50;;;;;;;33.17;11.55;;;3.30;99.90;;;;;;5057848;28;20099;-82
2022/02/18 07:11:17;;;;;;;31.40;10.13;;;3.30;99.90;;;;;;5057066;28;20080;-82
2022/02/18 07:13:44;;;;;;;26.65;8.73;;;3.50;99.90;;;;;;5057566;28;20148;-82
2022/02/18 07:16:12;;;;;;;27.83;9.25;;;3.60;99.90;;;;;;5058326;28;20087;-80
2022/02/18 07:18:40;;;;;;;29.98;9.05;;;3.60;99.90;;;;;;5056986;28;20227;-82
2022/02/18 07:21:07;;;;;;;30.08;10.60;;;3.70;99.90;;;;;;5057207;28;20095;-82
2022/02/18 07:23:34;;;;;;;24.40;8.65;;;3.70;99.90;;;;;;5057673;28;20171;-82
2022/02/18 07:26:01;;;;;;;27.35;9.52;;;3.90;99.90;;;;;;5057506;28;20113;-82
2022/02/18 07:28:28;;;;;;;19.75;8.07;;;3.90;99.90;;;;;;5058634;28;20123;-81
2022/02/18 07:30:57;;;;;;;23.17;7.97;;;4.00;99.90;;;;;;5057275;28;20049;-82
2022/02/18 07:33:24;;;;;;;20.08;6.80;;;4.10;99.90;;;;;;5056929;28;20045;-81
2022/02/18 07:35:52;;;;;;;20.33;5.57;;;4.40;99.90;;;;;;5058406;28;20073;-82
2022/02/18 07:38:19;;;;;;;16.95;5.85;;;4.50;99.90;;;;;;5057241;28;20092;-82
2022/02/18 07:40:46;;;;;;;20.77;4.50;;;4.60;99.90;;;;;;5057250;28;20191;-81
2022/02/18 07:43:12;;;;;;;17.67;4.47;;;4.80;99.90;;;;;;5058911;28;20080;-82
2022/02/18 07:46:00;;;;;;;13.07;4.57;;;4.80;99.90;;;;;;5060664;28;20055;-82
2022/02/18 07:48:27;;;;;;;18.30;6.18;;;5.00;99.90;;;;;;5058400;28;20069;-80
2022/02/18 07:50:54;;;;;;;17.45;4.35;;;5.00;99.90;;;;;;5058495;28;20068;-81
2022/02/18 07:53:23;;;;;;;22.15;4.85;;;5.10;99.90;;;;;;5060839;28;20057;-81
2022/02/18 07:55:54;;;;;;;19.00;3.22;;;5.20;99.90;;;;;;5057837;28;20112;-83
2022/02/18 07:58:24;;;;;;;21.10;3.53;;;5.40;99.90;;;;;;5058458;28;20049;-80
2022/02/18 08:00:53;;;;;;;19.33;3.85;;;5.60;99.90;;;;;;5058687;28;20143;-80
2022/02/18 08:03:20;;;;;;;22.20;3.67;;;5.80;99.90;;;;;;5059641;28;20053;-81
2022/02/18 08:05:47;;;;;;;23.13;4.40;;;5.90;99.90;;;;;;5066808;28;20068;-83
2022/02/18 08:08:16;;;;;;;19.65;3.95;;;6.00;99.90;;;;;;5066585;28;20060;-83
2022/02/18 08:10:48;;;;;;;21.55;4.15;;;6.10;99.90;;;;;;5065352;28;20409;-83
2022/02/18 08:13:23;;;;;;;25.08;3.50;;;6.30;99.90;;;;;;5063781;28;20088;-83
2022/02/18 08:15:50;;;;;;;20.50;3.53;;;6.30;99.90;;;;;;5063306;28;20049;-82
2022/02/18 08:18:20;;;;;;;20.02;4.00;;;6.40;99.90;;;;;;5065040;28;20045;-83
2022/02/18 08:20:48;;;;;;;24.52;4.05;;;6.50;99.90;;;;;;5064096;28;20462;-83
2022/02/18 08:23:17;;;;;;;19.90;4.28;;;6.60;99.90;;;;;;5064010;28;20059;-83
2022/02/18 08:25:45;;;;;;;21.20;4.03;;;6.80;99.90;;;;;;5066201;28;20484;-84
2022/02/18 08:28:12;;;;;;;25.67;3.60;;;6.90;99.90;;;;;;5065920;28;20060;-83
2022/02/18 08:30:39;;;;;;;19.52;4.00;;;7.00;99.90;;;;;;5064224;28;20049;-84
2022/02/18 08:33:06;;;;;;;17.70;4.00;;;7.00;99.90;;;;;;5065032;28;20079;-83
2022/02/18 08:35:33;;;;;;;24.33;4.03;;;7.10;99.90;;;;;;5065285;28;20060;-83
2022/02/18 08:38:00;;;;;;;27.23;4.68;;;7.10;99.90;;;;;;5065673;28;20056;-83
2022/02/18 08:40:27;;;;;;;20.20;4.38;;;7.10;99.90;;;;;;5065307;28;20045;-83
2022/02/18 08:42:55;;;;;;;18.35;3.47;;;7.20;99.90;;;;;;5065431;28;20051;-83
2022/02/18 08:45:22;;;;;;;25.65;4.40;;;7.30;99.90;;;;;;5064497;28;20045;-83
2022/02/18 08:47:49;;;;;;;19.83;4.13;;;7.20;99.90;;;;;;5062133;28;20136;-83
2022/02/18 08:50:16;;;;;;;24.98;4.22;;;7.20;99.90;;;;;;5063092;28;20049;-83
2022/02/18 08:52:45;;;;;;;19.58;3.50;;;7.20;99.90;;;;;;5063972;28;20067;-83
2022/02/18 08:55:14;;;;;;;21.55;3.55;;;7.30;99.90;;;;;;5065217;28;20049;-83
2022/02/18 08:57:44;;;;;;;20.35;4.53;;;7.30;99.90;;;;;;5063682;28;20040;-83
2022/02/18 09:00:11;;;;;;;19.25;3.85;;;7.40;99.90;;;;;;5065961;28;20075;-83
2022/02/18 09:02:39;;;;;;;17.83;4.35;;;7.40;99.90;;;;;;5065494;28;20053;-83
2022/02/18 09:05:06;;;;;;;22.63;4.25;;;7.50;99.90;;;;;;5064606;28;20073;-83
2022/02/18 09:07:33;;;;;;;24.10;3.90;;;7.50;99.90;;;;;;5063192;28;20127;-83
2022/02/18 09:10:00;;;;;;;22.65;3.42;;;7.50;99.90;;;;;;5063572;28;20063;-83
2022/02/18 09:12:29;;;;;;;20.42;4.82;;;7.60;99.90;;;;;;5061896;28;20083;-83
2022/02/18 09:14:56;;;;;;;20.92;3.63;;;7.60;99.90;;;;;;5062896;28;20103;-83
2022/02/18 09:17:23;;;;;;;16.20;3.20;;;7.60;99.90;;;;;;5062772;28;20052;-83
2022/02/18 09:19:52;;;;;;;26.70;4.60;;;7.60;99.90;;;;;;5063435;28;20073;-82
2022/02/18 09:22:19;;;;;;;31.48;5.47;;;7.70;99.90;;;;;;5061594;28;20049;-83
2022/02/18 09:24:47;;;;;;;25.50;4.38;;;7.70;99.90;;;;;;5062232;28;20052;-83
2022/02/18 09:27:14;;;;;;;24.15;4.35;;;7.60;99.90;;;;;;5061890;28;20056;-83
2022/02/18 09:29:41;;;;;;;21.30;4.20;;;7.60;99.90;;;;;;5063663;28;20083;-83
2022/02/18 09:32:07;;;;;;;19.70;3.35;;;7.50;99.90;;;;;;5060278;28;20074;-83
2022/02/18 09:34:34;;;;;;;18.98;4.53;;;7.50;99.90;;;;;;5060843;28;20083;-82
2022/02/18 09:37:01;;;;;;;24.08;4.93;;;7.40;99.90;;;;;;5059500;28;20083;-83
2022/02/18 09:39:28;;;;;;;18.27;3.42;;;7.30;99.90;;;;;;5062123;28;20048;-82
2022/02/18 09:41:55;;;;;;;22.55;4.68;;;7.40;99.90;;;;;;5061329;28;20099;-83
2022/02/18 09:44:25;;;;;;;23.95;3.78;;;7.40;99.90;;;;;;5060237;28;20083;-83
2022/02/18 09:46:52;;;;;;;20.45;3.97;;;7.40;99.90;;;;;;5052358;28;20393;-83
2022/02/18 09:49:19;;;;;;;23.90;4.40;;;7.40;99.90;;;;;;5053848;28;20506;-83
2022/02/18 09:51:46;;;;;;;20.55;3.80;;;7.40;99.90;;;;;;5043033;28;20058;-83
2022/02/18 09:54:14;;;;;;;20.02;3.95;;;7.50;99.90;;;;;;5040864;28;20136;-83
2022/02/18 09:56:43;;;;;;;14.80;3.47;;;7.50;99.90;;;;;;5041024;28;20109;-82
2022/02/18 09:59:13;;;;;;;20.05;4.07;;;7.50;99.90;;;;;;5041512;28;20136;-83
2022/02/18 10:01:40;;;;;;;21.50;4.15;;;7.50;99.90;;;;;;5040381;28;20056;-83
2022/02/18 10:04:10;;;;;;;22.80;4.53;;;7.50;99.90;;;;;;5043068;28;20051;-84
2022/02/18 10:06:38;;;;;;;23.15;5.60;;;7.60;99.90;;;;;;5040294;28;20136;-83
2022/02/18 10:09:05;;;;;;;14.77;3.92;;;7.70;99.90;;;;;;5043564;28;20109;-83
2022/02/18 10:11:56;;;;;;;19.30;3.63;;;7.70;99.90;;;;;;5042116;28;20060;-82
2022/02/18 10:14:23;;;;;;;18.67;3.95;;;7.90;99.90;;;;;;5041685;28;20054;-83
2022/02/18 10:16:50;;;;;;;19.95;4.00;;;8.00;99.90;;;;;;5043819;28;20077;-83
2022/02/18 10:19:21;;;;;;;20.13;3.90;;;8.00;99.90;;;;;;5043741;28;20064;-83
2022/02/18 10:22:01;;;;;;;18.27;3.78;;;8.10;99.90;;;;;;5042548;28;20137;-83
2022/02/18 10:24:38;;;;;;;15.15;3.58;;;8.20;99.90;;;;;;5041908;28;20046;-82
2022/02/18 10:27:05;;;;;;;17.70;3.53;;;8.30;99.90;;;;;;5042416;28;20060;-83
2022/02/18 10:29:32;;;;;;;21.13;7.47;;;8.40;99.90;;;;;;5047160;28;20049;-82
2022/02/18 10:32:12;;;;;;;14.40;4.40;;;8.40;99.90;;;;;;5044238;28;20053;-83
2022/02/18 10:34:55;;;;;;;13.50;3.03;;;8.40;99.90;;;;;;5046054;28;20057;-83
2022/02/18 10:37:24;;;;;;;18.02;2.85;;;8.20;99.90;;;;;;5045256;28;20125;-83
2022/02/18 10:40:04;;;;;;;13.98;2.72;;;8.10;99.90;;;;;;5044006;28;20076;-83
2022/02/18 10:42:32;;;;;;;9.40;2.20;;;8.00;99.90;;;;;;5046582;28;20061;-82
2022/02/18 10:45:10;;;;;;;8.77;2.13;;;7.90;99.90;;;;;;5046400;28;20140;-83
2022/02/18 10:47:38;;;;;;;4.82;1.38;;;8.00;99.90;;;;;;5044314;28;20049;-82
2022/02/18 10:50:14;;;;;;;6.07;1.70;;;8.00;99.90;;;;;;5043432;28;20069;-83
2022/02/18 10:52:42;;;;;;;5.13;1.45;;;7.90;99.90;;;;;;5043414;28;20060;-83
2022/02/18 10:55:10;;;;;;;3.40;1.20;;;8.00;99.90;;;;;;5046103;28;20054;-83
2022/02/18 10:57:36;;;;;;;3.90;1.00;;;8.00;99.90;;;;;;5044365;28;20050;-83
2022/02/18 11:00:12;;;;;;;2.97;1.13;;;8.00;99.90;;;;;;5043487;28;20072;-83
2022/02/18 11:02:52;;;;;;;3.92;1.08;;;8.00;99.90;;;;;;5043290;28;20053;-82
2022/02/18 11:05:28;;;;;;;2.67;1.20;;;7.90;99.90;;;;;;5044751;28;20073;-83
2022/02/18 11:07:56;;;;;;;2.70;0.70;;;7.90;99.90;;;;;;5045021;28;20081;-83
2022/02/18 11:10:29;;;;;;;1.95;0.95;;;7.90;99.90;;;;;;5049244;28;20730;-81
2022/02/18 11:12:56;;;;;;;1.83;0.60;;;7.90;99.90;;;;;;5048872;28;20488;-82
2022/02/18 11:15:25;;;;;;;2.92;1.00;;;8.00;99.90;;;;;;5046670;28;20049;-81
2022/02/18 11:17:53;;;;;;;1.48;0.52;;;8.10;99.90;;;;;;5043824;28;20128;-80
2022/02/18 11:20:23;;;;;;;2.42;0.68;;;8.10;99.90;;;;;;5038950;28;20041;-81
2022/02/18 11:22:53;;;;;;;1.90;0.50;;;8.20;99.90;;;;;;5039320;28;20069;-81
2022/02/18 11:25:21;;;;;;;2.15;0.60;;;8.10;99.90;;;;;;5039668;28;20065;-80
2022/02/18 11:27:50;;;;;;;1.75;0.77;;;8.20;99.90;;;;;;5039583;28;20085;-81
2022/02/18 11:30:18;;;;;;;1.63;0.70;;;8.30;99.90;;;;;;5040851;28;20140;-81
2022/02/18 11:33:21;;;;;;;1.48;0.70;;;8.40;99.90;;;;;;5041572;28;20107;-81
2022/02/18 11:36:17;;;;;;;0.50;0.50;;;8.40;99.90;;;;;;5037255;28;20057;-80
2022/02/18 11:39:03;;;;;;;1.10;0.60;;;8.50;99.90;;;;;;5037490;28;20088;-80
2022/02/18 11:41:39;;;;;;;3.58;0.90;;;8.50;99.90;;;;;;5037230;28;20049;-79
2022/02/18 11:44:08;;;;;;;4.80;0.73;;;8.50;99.90;;;;;;5038428;28;20084;-80
2022/02/18 11:46:35;;;;;;;3.65;0.68;;;8.50;99.90;;;;;;5037117;28;20049;-82
2022/02/18 11:49:02;;;;;;;1.80;0.50;;;8.50;99.90;;;;;;5039698;28;20480;-81
2022/02/18 11:51:41;;;;;;;1.88;0.70;;;8.40;99.90;;;;;;5039324;28;20050;-81
2022/02/18 11:54:24;;;;;;;2.70;0.80;;;8.40;99.90;;;;;;5038903;28;20148;-82
2022/02/18 11:57:19;;;;;;;4.90;1.17;;;8.50;99.90;;;;;;5039212;28;20463;-81
2022/02/18 12:00:06;;;;;;;3.35;0.80;;;8.50;99.90;;;;;;5039305;28;20041;-81
2022/02/18 12:02:42;;;;;;;5.43;0.90;;;8.50;99.90;;;;;;5040037;28;20133;-81
2022/02/18 12:05:10;;;;;;;2.70;1.02;;;8.40;99.90;;;;;;5038416;28;20087;-80
2022/02/18 12:07:42;;;;;;;2.80;0.80;;;8.50;99.90;;;;;;5038787;28;20093;-80
2022/02/18 12:10:19;;;;;;;2.00;0.70;;;8.40;99.90;;;;;;5038292;28;20057;-80
2022/02/18 12:12:48;;;;;;;0.73;0.45;;;8.40;99.90;;;;;;5038910;28;20110;-81
2022/02/18 12:15:23;;;;;;;3.00;0.60;;;8.50;99.90;;;;;;5039597;28;20412;-81
2022/02/18 12:17:56;;;;;;;2.17;0.80;;;8.50;99.90;;;;;;5040146;28;20045;-81
2022/02/18 12:20:24;;;;;;;1.60;0.60;;;8.50;99.90;;;;;;5039705;28;20042;-83
2022/02/18 12:22:51;;;;;;;2.58;0.75;;;8.50;99.90;;;;;;5040596;28;20076;-84
2022/02/18 12:25:24;;;;;;;2.65;0.95;;;8.50;99.90;;;;;;5040715;28;20049;-84
2022/02/18 12:28:16;;;;;;;4.85;0.80;;;8.40;99.90;;;;;;5039794;28;20132;-84
2022/02/18 12:30:52;;;;;;;1.55;0.80;;;8.40;99.90;;;;;;5039168;28;20487;-84
2022/02/18 12:33:19;;;;;;;3.40;1.20;;;8.30;99.90;;;;;;5040253;28;20057;-83
2022/02/18 12:35:46;;;;;;;2.60;0.90;;;8.30;99.90;;;;;;5043220;28;20136;-82
2022/02/18 12:38:14;;;;;;;4.50;1.30;;;8.30;99.90;;;;;;5042367;28;20404;-82
2022/02/18 12:40:42;;;;;;;3.55;1.20;;;8.30;99.90;;;;;;5041556;28;20049;-83
2022/02/18 12:43:14;;;;;;;7.10;1.35;;;8.40;99.90;;;;;;5042877;28;20133;-83
2022/02/18 12:45:57;;;;;;;4.30;1.55;;;8.50;99.90;;;;;;5043403;28;20056;-82
2022/02/18 12:48:36;;;;;;;5.57;1.20;;;8.50;99.90;;;;;;5041639;28;20077;-83
2022/02/18 12:51:08;;;;;;;9.13;1.60;;;8.60;99.90;;;;;;5039479;28;20053;-82
2022/02/18 12:53:36;;;;;;;10.50;1.77;;;8.70;99.90;;;;;;5040295;28;20136;-84
2022/02/18 12:56:14;;;;;;;5.05;1.52;;;8.80;99.90;;;;;;5042163;28;20489;-82
2022/02/18 12:58:48;;;;;;;9.10;2.45;;;8.80;99.90;;;;;;5042267;28;20137;-83